createdAt,value
2024-02-21T00:02:06.244Z,7.10
2024-02-21T00:04:33.734Z,8.07
2024-02-21T00:07:00.886Z,7.00
2024-02-21T00:09:30.989Z,7.53
2024-02-21T00:11:59.903Z,7.15
2024-02-21T00:14:26.880Z,8.02
2024-02-21T00:16:53.957Z,6.75
2024-02-21T00:19:22.102Z,9.27
2024-02-21T00:21:49.327Z,7.13
2024-02-21T00:24:18.336Z,7.78
2024-02-21T00:26:45.668Z,7.25
2024-02-21T00:29:12.860Z,7.80
2024-02-21T00:31:40.158Z,8.82
2024-02-21T00:34:10.510Z,9.63
2024-02-21T00:36:40.794Z,9.45
2024-02-21T00:39:09.856Z,8.77
2024-02-21T00:41:36.825Z,8.45
2024-02-21T00:44:03.950Z,8.30
2024-02-21T00:46:31.311Z,7.85
2024-02-21T00:48:58.180Z,7.80
2024-02-21T00:51:27.122Z,8.27
2024-02-21T00:53:56.211Z,7.38
2024-02-21T00:56:23.681Z,7.03
2024-02-21T00:58:53.582Z,6.80
2024-02-21T01:01:25.051Z,6.47
2024-02-21T01:03:54.429Z,6.35
2024-02-21T01:06:22.057Z,7.47
2024-02-21T01:08:49.321Z,7.88
2024-02-21T01:11:16.947Z,7.25
2024-02-21T01:13:44.238Z,7.78
2024-02-21T01:16:11.547Z,7.90
2024-02-21T01:18:40.908Z,7.45
2024-02-21T01:21:09.089Z,7.45
2024-02-21T01:23:38.805Z,8.13
2024-02-21T01:26:06.034Z,8.23
2024-02-21T01:28:37.021Z,8.10
2024-02-21T01:31:04.894Z,7.32
2024-02-21T01:33:36.090Z,7.97
2024-02-21T01:36:04.291Z,8.18
2024-02-21T01:38:31.350Z,8.20
2024-02-21T01:40:58.427Z,8.25
2024-02-21T01:43:25.832Z,8.80
2024-02-21T01:45:57.549Z,8.23
2024-02-21T01:48:26.852Z,8.45
2024-02-21T01:50:56.054Z,8.95
2024-02-21T01:53:31.049Z,8.90
2024-02-21T01:55:58.254Z,8.55
2024-02-21T01:58:25.515Z,9.18
2024-02-21T02:00:53.208Z,8.27
2024-02-21T02:03:21.441Z,7.90
2024-02-21T02:05:50.121Z,8.95
2024-02-21T02:08:18.868Z,8.68
2024-02-21T02:10:47.241Z,9.15
2024-02-21T02:13:16.172Z,8.55
2024-02-21T02:15:50.647Z,7.95
2024-02-21T02:18:21.049Z,7.93
2024-02-21T02:20:49.860Z,8.32
2024-02-21T02:23:26.618Z,8.65
2024-02-21T02:25:55.844Z,8.50
2024-02-21T02:28:23.429Z,9.23
2024-02-21T02:30:52.495Z,9.27
2024-02-21T02:33:20.106Z,8.52
2024-02-21T02:35:51.604Z,8.63
2024-02-21T02:38:21.053Z,8.02
2024-02-21T02:40:48.016Z,8.52
2024-02-21T02:43:15.419Z,8.40
2024-02-21T02:45:42.390Z,8.18
2024-02-21T02:48:10.932Z,7.85
2024-02-21T02:50:38.258Z,8.48
2024-02-21T02:53:06.455Z,8.45
2024-02-21T02:55:33.458Z,8.75
2024-02-21T02:58:01.635Z,7.53
2024-02-21T03:00:28.972Z,8.90
2024-02-21T03:02:55.925Z,9.82
2024-02-21T03:05:24.143Z,8.30
2024-02-21T03:07:52.935Z,8.50
2024-02-21T03:10:20.692Z,8.00
2024-02-21T03:12:47.878Z,8.52
2024-02-21T03:15:18.200Z,8.02
2024-02-21T03:17:45.270Z,10.00
2024-02-21T03:20:13.836Z,7.93
2024-02-21T03:22:42.326Z,8.88
2024-02-21T03:25:12.231Z,7.80
2024-02-21T03:27:40.694Z,8.00
2024-02-21T03:30:08.329Z,8.30
2024-02-21T03:32:36.145Z,7.90
2024-02-21T03:35:03.537Z,7.93
2024-02-21T03:37:30.904Z,7.90
2024-02-21T03:40:00.876Z,9.13
2024-02-21T03:42:31.094Z,9.07
2024-02-21T03:44:58.395Z,7.93
2024-02-21T03:47:25.293Z,8.13
2024-02-21T03:49:52.594Z,8.70
2024-02-21T03:52:19.766Z,8.52
2024-02-21T03:54:49.596Z,8.30
2024-02-21T03:57:16.781Z,8.50
2024-02-21T03:59:45.065Z,8.07
2024-02-21T04:02:12.293Z,8.70
2024-02-21T04:04:47.540Z,8.57
2024-02-21T04:07:18.128Z,7.97
2024-02-21T04:09:45.388Z,8.38
2024-02-21T04:12:12.721Z,8.95
2024-02-21T04:14:44.218Z,9.23
2024-02-21T04:17:12.828Z,9.52
2024-02-21T04:19:39.983Z,8.55
2024-02-21T04:22:08.201Z,8.55
2024-02-21T04:24:39.220Z,9.15
2024-02-21T04:27:06.154Z,8.55
2024-02-21T04:29:37.748Z,8.23
2024-02-21T04:32:05.768Z,9.93
2024-02-21T04:34:33.225Z,8.48
2024-02-21T04:37:00.156Z,8.93
2024-02-21T04:39:27.639Z,8.18
2024-02-21T04:41:54.518Z,9.43
2024-02-21T04:44:23.681Z,9.13
2024-02-21T04:46:51.066Z,9.45
2024-02-21T04:49:18.644Z,9.50
2024-02-21T04:51:46.899Z,9.05
2024-02-21T04:54:14.916Z,8.90
2024-02-21T04:56:41.876Z,9.18
2024-02-21T04:59:09.427Z,9.50
2024-02-21T05:01:36.996Z,10.60
2024-02-21T05:04:05.565Z,10.13
2024-02-21T05:06:33.731Z,10.52
2024-02-21T05:09:01.409Z,10.48
2024-02-21T05:11:28.775Z,10.27
2024-02-21T05:13:57.294Z,10.07
2024-02-21T05:16:25.575Z,10.02
2024-02-21T05:18:52.628Z,10.27
2024-02-21T05:21:20.529Z,10.15
2024-02-21T05:23:49.352Z,9.88
2024-02-21T05:26:36.643Z,8.77
2024-02-21T05:29:05.047Z,8.70
2024-02-21T05:31:53.196Z,9.30
2024-02-21T05:34:21.515Z,8.95
2024-02-21T05:36:53.933Z,8.93
2024-02-21T05:39:24.832Z,8.85
2024-02-21T05:41:52.189Z,8.88
2024-02-21T05:44:20.168Z,8.98
2024-02-21T05:46:47.527Z,8.52
2024-02-21T05:49:16.793Z,8.82
2024-02-21T05:51:44.126Z,8.57
2024-02-21T05:54:13.598Z,8.90
2024-02-21T05:56:45.874Z,8.98
2024-02-21T05:59:14.224Z,8.55
2024-02-21T06:01:43.004Z,9.70
2024-02-21T06:04:10.185Z,8.95
2024-02-21T06:06:38.138Z,8.77
2024-02-21T06:09:05.550Z,8.60
2024-02-21T06:11:34.205Z,8.32
2024-02-21T06:14:04.445Z,8.18
2024-02-21T06:16:31.478Z,8.32
2024-02-21T06:18:58.729Z,7.50
2024-02-21T06:21:30.576Z,7.80
2024-02-21T06:23:57.397Z,7.60
2024-02-21T06:26:27.392Z,7.82
2024-02-21T06:28:56.550Z,7.88
2024-02-21T06:31:24.001Z,7.82
2024-02-21T06:33:51.396Z,8.07
2024-02-21T06:36:19.319Z,7.70
2024-02-21T06:38:47.798Z,7.13
2024-02-21T06:41:20.756Z,7.90
2024-02-21T06:43:54.069Z,8.50
2024-02-21T06:46:29.990Z,7.68
2024-02-21T06:48:58.593Z,7.65
2024-02-21T06:51:26.448Z,7.88
2024-02-21T06:53:54.210Z,8.02
2024-02-21T06:56:21.868Z,9.07
2024-02-21T06:58:50.070Z,8.70
2024-02-21T07:01:17.466Z,7.93
2024-02-21T07:03:48.906Z,7.85
2024-02-21T07:06:16.071Z,8.60
2024-02-21T07:08:43.406Z,8.30
2024-02-21T07:11:10.503Z,8.10
2024-02-21T07:13:37.843Z,8.10
2024-02-21T07:16:05.638Z,7.80
2024-02-21T07:18:32.696Z,8.50
2024-02-21T07:21:00.721Z,7.75
2024-02-21T07:23:27.602Z,8.95
2024-02-21T07:25:55.604Z,8.02
2024-02-21T07:28:26.601Z,7.95
2024-02-21T07:30:53.632Z,7.75
2024-02-21T07:33:20.532Z,7.88
2024-02-21T07:35:47.426Z,7.57
2024-02-21T07:38:15.544Z,8.55
2024-02-21T07:40:46.014Z,8.45
2024-02-21T07:43:13.918Z,8.75
2024-02-21T07:45:41.934Z,7.30
2024-02-21T07:48:08.862Z,8.00
2024-02-21T07:50:36.903Z,7.90
2024-02-21T07:53:03.878Z,7.10
2024-02-21T07:55:31.407Z,7.25
2024-02-21T07:57:58.611Z,7.22
2024-02-21T08:00:25.631Z,6.63
2024-02-21T08:02:52.377Z,7.38
2024-02-21T08:05:19.655Z,7.03
2024-02-21T08:07:50.345Z,7.38
2024-02-21T08:10:17.507Z,7.00
2024-02-21T08:12:44.427Z,6.90
2024-02-21T08:15:13.694Z,6.95
2024-02-21T08:17:40.904Z,7.82
2024-02-21T08:20:09.924Z,6.68
2024-02-21T08:22:39.766Z,7.30
2024-02-21T08:25:07.944Z,7.05
2024-02-21T08:27:35.728Z,6.82
2024-02-21T08:30:02.789Z,7.43
2024-02-21T08:32:30.764Z,7.05
2024-02-21T08:35:01.282Z,7.43
2024-02-21T08:37:30.324Z,6.63
2024-02-21T08:40:09.244Z,6.65
2024-02-21T08:42:42.084Z,6.80
2024-02-21T08:45:11.134Z,6.80
2024-02-21T08:47:41.058Z,6.38
2024-02-21T08:50:18.921Z,6.05
2024-02-21T08:52:54.781Z,6.45
2024-02-21T08:55:21.913Z,6.15
2024-02-21T08:57:49.045Z,7.05
2024-02-21T09:00:17.725Z,7.55
2024-02-21T09:02:44.844Z,6.82
2024-02-21T09:05:13.142Z,6.22
2024-02-21T09:07:40.394Z,6.38
2024-02-21T09:10:10.153Z,7.10
2024-02-21T09:12:37.138Z,6.40
2024-02-21T09:15:04.886Z,6.63
2024-02-21T09:17:32.747Z,6.25
2024-02-21T09:20:04.464Z,6.90
2024-02-21T09:22:32.798Z,7.07
2024-02-21T09:25:00.176Z,6.65
2024-02-21T09:27:31.555Z,6.05
2024-02-21T09:29:58.677Z,6.70
2024-02-21T09:32:27.882Z,6.80
2024-02-21T09:34:59.060Z,6.38
2024-02-21T09:37:28.131Z,6.85
2024-02-21T09:39:55.059Z,8.55
2024-02-21T09:42:31.523Z,8.43
2024-02-21T09:44:58.655Z,7.03
2024-02-21T09:47:40.650Z,7.35
2024-02-21T09:50:09.786Z,7.20
2024-02-21T09:52:39.561Z,8.13
2024-02-21T09:55:09.539Z,7.53
2024-02-21T09:57:38.733Z,7.20
2024-02-21T10:00:09.302Z,7.63
2024-02-21T10:02:36.490Z,7.80
2024-02-21T10:05:06.248Z,8.30
2024-02-21T10:07:33.847Z,7.85
2024-02-21T10:10:07.282Z,8.02
2024-02-21T10:12:34.584Z,8.15
2024-02-21T10:15:06.618Z,8.00
2024-02-21T10:17:37.710Z,7.38
2024-02-21T10:20:11.963Z,8.57
2024-02-21T10:22:43.903Z,7.88
2024-02-21T10:25:12.471Z,8.50
2024-02-21T10:27:40.533Z,8.93
2024-02-21T10:30:14.638Z,8.40
2024-02-21T10:32:56.061Z,8.57
2024-02-21T10:35:34.612Z,8.48
2024-02-21T10:38:02.951Z,8.32
2024-02-21T10:40:32.340Z,8.50
2024-02-21T10:43:03.204Z,7.88
2024-02-21T10:45:36.254Z,8.70
2024-02-21T10:48:14.294Z,8.55
2024-02-21T10:51:04.943Z,8.48
2024-02-21T10:53:51.761Z,8.43
2024-02-21T10:56:30.030Z,8.85
2024-02-21T10:59:01.942Z,9.02
2024-02-21T11:01:32.972Z,8.75
2024-02-21T11:04:08.785Z,8.95
2024-02-21T11:06:38.608Z,8.20
2024-02-21T11:09:07.051Z,9.05
2024-02-21T11:11:41.925Z,9.10
2024-02-21T11:14:10.501Z,9.05
2024-02-21T11:16:42.162Z,8.90
2024-02-21T11:19:24.034Z,9.15
2024-02-21T11:21:52.372Z,9.07
2024-02-21T11:24:38.925Z,8.68
2024-02-21T11:27:10.788Z,7.93
2024-02-21T11:29:56.477Z,9.30
2024-02-21T11:32:23.733Z,8.43
2024-02-21T11:35:08.776Z,9.38
2024-02-21T11:37:41.460Z,8.40
2024-02-21T11:40:12.519Z,8.82
2024-02-21T11:42:41.784Z,8.73
2024-02-21T11:45:10.630Z,9.02
2024-02-21T11:47:42.177Z,9.18
2024-02-21T11:50:13.173Z,9.10
2024-02-21T11:52:42.632Z,9.05
2024-02-21T11:55:10.498Z,8.32
2024-02-21T11:57:45.369Z,9.80
2024-02-21T12:00:18.176Z,9.40
2024-02-21T12:02:46.915Z,9.75
2024-02-21T12:05:16.020Z,9.80
2024-02-21T12:07:45.401Z,10.13
2024-02-21T12:10:13.458Z,9.07
2024-02-21T12:12:41.230Z,10.05
2024-02-21T12:15:09.207Z,9.15
2024-02-21T12:17:41.499Z,8.88
2024-02-21T12:20:11.027Z,9.63
2024-02-21T12:22:39.698Z,9.35
2024-02-21T12:25:28.513Z,8.93
2024-02-21T12:27:55.479Z,9.05
2024-02-21T12:30:22.571Z,9.27
2024-02-21T12:32:51.019Z,8.55
2024-02-21T12:35:19.370Z,8.63
2024-02-21T12:37:46.855Z,8.10
2024-02-21T12:40:15.034Z,8.35
2024-02-21T12:42:46.760Z,7.72
2024-02-21T12:45:14.130Z,7.63
2024-02-21T12:47:48.015Z,7.18
2024-02-21T12:50:16.514Z,7.60
2024-02-21T12:52:43.943Z,7.32
2024-02-21T12:55:12.288Z,6.35
2024-02-21T12:57:39.256Z,7.25
2024-02-21T13:00:09.939Z,6.45
2024-02-21T13:02:36.992Z,6.32
2024-02-21T13:05:06.813Z,6.50
2024-02-21T13:07:34.660Z,6.55
2024-02-21T13:10:01.589Z,5.43
2024-02-21T13:12:31.383Z,6.32
2024-02-21T13:14:58.609Z,5.75
2024-02-21T13:17:34.629Z,6.20
2024-02-21T13:20:01.867Z,5.78
2024-02-21T13:22:29.300Z,5.75
2024-02-21T13:25:00.711Z,6.50
2024-02-21T13:27:27.653Z,5.57
2024-02-21T13:29:54.645Z,5.90
2024-02-21T13:32:21.538Z,6.70
2024-02-21T13:34:48.637Z,6.22
2024-02-21T13:37:16.247Z,6.35
2024-02-21T13:39:43.489Z,5.97
2024-02-21T13:42:10.590Z,5.78
2024-02-21T13:44:38.681Z,6.07
2024-02-21T13:47:06.068Z,5.07
2024-02-21T13:49:36.860Z,4.32
2024-02-21T13:52:04.576Z,4.32
2024-02-21T13:54:31.737Z,4.82
2024-02-21T13:56:59.987Z,4.50
2024-02-21T13:59:27.995Z,4.15
2024-02-21T14:01:58.291Z,4.70
2024-02-21T14:04:26.352Z,4.63
2024-02-21T14:06:56.710Z,3.92
2024-02-21T14:09:23.699Z,5.10
2024-02-21T14:11:53.738Z,4.93
2024-02-21T14:14:20.716Z,4.45
2024-02-21T14:16:49.397Z,5.35
2024-02-21T14:19:18.748Z,5.43
2024-02-21T14:21:46.746Z,5.53
2024-02-21T14:24:15.815Z,5.13
2024-02-21T14:26:42.759Z,4.68
2024-02-21T14:29:10.261Z,4.95
2024-02-21T14:31:37.773Z,4.80
2024-02-21T14:34:06.301Z,5.30
2024-02-21T14:36:34.347Z,5.03
2024-02-21T14:39:01.559Z,4.47
2024-02-21T14:41:29.750Z,4.97
2024-02-21T14:44:03.966Z,5.00
2024-02-21T14:46:32.572Z,5.00
2024-02-21T14:48:59.710Z,4.70
2024-02-21T14:51:27.002Z,4.88
2024-02-21T14:53:54.037Z,5.40
2024-02-21T14:56:22.043Z,5.50
2024-02-21T14:58:50.823Z,5.35
2024-02-21T15:01:21.062Z,5.63
2024-02-21T15:03:49.090Z,5.63
2024-02-21T15:06:17.020Z,5.72
2024-02-21T15:08:47.513Z,5.50
2024-02-21T15:11:17.819Z,5.60
2024-02-21T15:13:45.052Z,5.68
2024-02-21T15:16:11.985Z,6.15
2024-02-21T15:18:40.970Z,6.25
2024-02-21T15:21:11.842Z,5.68
2024-02-21T15:23:38.940Z,5.88
2024-02-21T15:26:06.946Z,5.60
2024-02-21T15:28:34.435Z,5.68
2024-02-21T15:31:01.720Z,5.53
2024-02-21T15:33:28.836Z,5.65
2024-02-21T15:35:56.068Z,5.40
2024-02-21T15:38:23.104Z,5.75
2024-02-21T15:40:51.160Z,5.40
2024-02-21T15:43:18.680Z,5.88
2024-02-21T15:45:46.058Z,5.50
2024-02-21T15:48:14.893Z,5.45
2024-02-21T15:50:41.968Z,5.43
2024-02-21T15:53:09.190Z,5.25
2024-02-21T15:55:36.474Z,4.60
2024-02-21T15:58:05.488Z,5.75
2024-02-21T16:00:34.450Z,4.90
2024-02-21T16:03:02.069Z,5.38
2024-02-21T16:05:29.338Z,5.75
2024-02-21T16:07:57.836Z,5.20
2024-02-21T16:10:25.893Z,5.50
2024-02-21T16:12:54.102Z,4.97
2024-02-21T16:15:21.063Z,5.40
2024-02-21T16:17:49.179Z,6.00
2024-02-21T16:20:16.900Z,5.60
2024-02-21T16:22:46.370Z,5.70
2024-02-21T16:25:14.166Z,5.63
2024-02-21T16:27:42.639Z,5.45
2024-02-21T16:30:12.278Z,4.80
2024-02-21T16:32:44.266Z,5.32
2024-02-21T16:35:13.436Z,5.28
2024-02-21T16:37:40.574Z,6.10
2024-02-21T16:40:08.493Z,5.78
2024-02-21T16:42:35.476Z,5.22
2024-02-21T16:45:05.585Z,5.88
2024-02-21T16:47:33.682Z,5.07
2024-02-21T16:50:01.876Z,5.50
2024-02-21T16:52:29.156Z,5.63
2024-02-21T16:54:57.732Z,5.57
2024-02-21T16:57:25.057Z,11.88
2024-02-21T16:59:55.393Z,10.43
2024-02-21T17:02:22.966Z,14.57
2024-02-21T17:04:51.211Z,29.83
2024-02-21T17:07:19.035Z,21.90
2024-02-21T17:09:47.113Z,13.70
2024-02-21T17:12:14.089Z,9.10
2024-02-21T17:14:41.174Z,12.05
2024-02-21T17:17:08.636Z,12.02
2024-02-21T17:22:10.050Z,10.70
2024-02-21T17:24:36.918Z,17.35
2024-02-21T17:29:32.789Z,13.48
2024-02-21T17:32:00.984Z,9.80
2024-02-21T17:34:30.301Z,8.75
2024-02-21T17:36:57.738Z,9.75
2024-02-21T17:39:30.105Z,10.63
2024-02-21T17:41:58.953Z,7.32
2024-02-21T17:44:26.293Z,7.10
2024-02-21T17:46:53.593Z,9.70
2024-02-21T17:49:22.071Z,7.68
2024-02-21T17:51:49.117Z,8.20
2024-02-21T17:54:17.438Z,9.60
2024-02-21T17:56:44.599Z,7.72
2024-02-21T17:59:13.765Z,10.25
2024-02-21T18:01:41.181Z,18.02
2024-02-21T18:04:08.721Z,15.45
2024-02-21T18:06:35.929Z,11.18
2024-02-21T18:09:02.983Z,10.48
2024-02-21T18:11:31.791Z,24.10
2024-02-21T18:13:59.076Z,12.48
2024-02-21T18:16:27.351Z,21.38
2024-02-21T18:18:54.247Z,19.20
2024-02-21T18:21:21.078Z,25.63
2024-02-21T18:23:50.182Z,25.20
2024-02-21T18:26:17.834Z,24.67
2024-02-21T18:28:45.799Z,20.70
2024-02-21T18:31:14.952Z,22.00
2024-02-21T18:33:46.063Z,19.42
2024-02-21T18:36:13.476Z,12.38
2024-02-21T18:38:42.519Z,16.02
2024-02-21T18:41:11.147Z,14.15
2024-02-21T18:43:38.273Z,10.38
2024-02-21T18:46:07.484Z,10.93
2024-02-21T18:48:34.319Z,14.02
2024-02-21T18:51:02.509Z,17.52
2024-02-21T18:53:32.105Z,18.02
2024-02-21T18:55:59.533Z,18.17
2024-02-21T18:58:26.780Z,19.63
2024-02-21T19:00:54.831Z,18.75
2024-02-21T19:03:21.719Z,17.40
2024-02-21T19:05:50.119Z,18.08
2024-02-21T19:08:17.765Z,17.63
2024-02-21T19:10:45.982Z,17.50
2024-02-21T19:13:13.271Z,16.33
2024-02-21T19:15:42.673Z,16.15
2024-02-21T19:18:10.434Z,15.82
2024-02-21T19:20:37.573Z,15.65
2024-02-21T19:23:05.175Z,15.85
2024-02-21T19:25:33.598Z,15.20
2024-02-21T19:28:00.921Z,16.33
2024-02-21T19:30:29.240Z,15.05
2024-02-21T19:32:57.335Z,14.75
2024-02-21T19:35:24.411Z,16.20
2024-02-21T19:37:52.265Z,15.50
2024-02-21T19:40:20.328Z,15.85
2024-02-21T19:42:47.717Z,16.98
2024-02-21T19:45:16.019Z,16.40
2024-02-21T19:47:45.444Z,16.40
2024-02-21T19:50:19.573Z,15.73
2024-02-21T19:52:47.069Z,15.70
2024-02-21T19:55:18.528Z,15.90
2024-02-21T19:57:47.407Z,16.08
2024-02-21T20:00:15.217Z,15.50
2024-02-21T20:02:43.806Z,15.93
2024-02-21T20:05:11.365Z,16.48
2024-02-21T20:07:38.773Z,16.58
2024-02-21T20:10:08.456Z,16.55
2024-02-21T20:12:38.827Z,16.67
2024-02-21T20:15:07.048Z,17.08
2024-02-21T20:17:35.030Z,16.98
2024-02-21T20:20:04.244Z,17.25
2024-02-21T20:22:35.516Z,17.13
2024-02-21T20:25:05.305Z,17.40
2024-02-21T20:27:32.197Z,16.05
2024-02-21T20:30:07.141Z,16.75
2024-02-21T20:32:35.647Z,16.75
2024-02-21T20:35:03.140Z,16.00
2024-02-21T20:37:31.661Z,15.85
2024-02-21T20:40:00.245Z,15.38
2024-02-21T20:42:27.338Z,16.08
2024-02-21T20:44:55.246Z,15.15
2024-02-21T20:47:54.465Z,14.07
2024-02-21T20:50:23.364Z,13.63
2024-02-21T20:52:52.749Z,14.18
2024-02-21T20:55:25.731Z,13.07
2024-02-21T20:57:53.428Z,13.95
2024-02-21T21:00:24.255Z,12.95
2024-02-21T21:02:51.124Z,12.93
2024-02-21T21:05:21.699Z,12.35
2024-02-21T21:07:48.972Z,11.35
2024-02-21T21:10:17.164Z,11.05
2024-02-21T21:12:45.239Z,10.40
2024-02-21T21:15:13.320Z,10.82
2024-02-21T21:17:40.275Z,10.55
2024-02-21T21:20:13.457Z,10.68
2024-02-21T21:22:41.315Z,11.15
2024-02-21T21:25:10.853Z,11.32
2024-02-21T21:27:37.715Z,11.23
2024-02-21T21:30:07.882Z,11.88
2024-02-21T21:32:36.496Z,11.25
2024-02-21T21:35:06.696Z,10.60
2024-02-21T21:37:34.630Z,10.98
2024-02-21T21:40:01.885Z,10.75
2024-02-21T21:42:29.796Z,10.13
2024-02-21T21:44:56.770Z,9.85
2024-02-21T21:47:25.711Z,10.73
2024-02-21T21:49:52.717Z,9.73
2024-02-21T21:52:21.666Z,8.65
2024-02-21T21:54:51.376Z,8.93
2024-02-21T21:57:20.152Z,8.00
2024-02-21T21:59:48.160Z,7.93
2024-02-21T22:02:15.053Z,7.45
2024-02-21T22:04:42.282Z,6.57
2024-02-21T22:07:13.484Z,8.18
2024-02-21T22:09:47.447Z,7.32
2024-02-21T22:12:15.033Z,7.35
2024-02-21T22:14:42.296Z,7.32
2024-02-21T22:17:10.529Z,7.20
2024-02-21T22:19:37.854Z,7.18
2024-02-21T22:22:05.278Z,7.75
2024-02-21T22:24:33.002Z,7.20
2024-02-21T22:27:02.862Z,7.10
2024-02-21T22:29:31.761Z,7.10
2024-02-21T22:32:00.598Z,7.35
2024-02-21T22:34:28.689Z,7.00
2024-02-21T22:36:56.039Z,6.78
2024-02-21T22:39:25.580Z,6.97
2024-02-21T22:41:54.716Z,7.13
2024-02-21T22:44:22.045Z,7.57
2024-02-21T22:46:52.376Z,6.75
2024-02-21T22:49:22.643Z,7.22
2024-02-21T22:51:50.005Z,6.35
2024-02-21T22:54:17.961Z,7.15
2024-02-21T22:56:49.969Z,6.47
2024-02-21T22:59:16.992Z,7.55
2024-02-21T23:01:44.096Z,7.57
2024-02-21T23:04:12.111Z,7.25
2024-02-21T23:06:39.296Z,7.28
2024-02-21T23:09:06.294Z,7.47
2024-02-21T23:11:33.549Z,7.72
2024-02-21T23:14:00.732Z,7.10
2024-02-21T23:16:28.736Z,7.47
2024-02-21T23:18:58.742Z,7.78
2024-02-21T23:21:25.713Z,6.63
2024-02-21T23:23:54.615Z,7.63
2024-02-21T23:26:32.251Z,6.68
2024-02-21T23:28:59.806Z,6.80
2024-02-21T23:31:27.918Z,6.13
2024-02-21T23:33:56.339Z,6.28
2024-02-21T23:36:23.716Z,6.40
2024-02-21T23:38:51.807Z,6.15
2024-02-21T23:41:18.819Z,6.75
2024-02-21T23:43:47.216Z,5.88
2024-02-21T23:46:14.571Z,5.63
2024-02-21T23:48:42.532Z,6.22
2024-02-21T23:51:10.732Z,5.88
2024-02-21T23:53:38.041Z,5.95
2024-02-21T23:56:12.336Z,5.80
2024-02-21T23:58:41.728Z,5.10
